Time;durP1;ratioP1;P1;durP2;ratioP2;P2;SDS_P1;SDS_P2;PMS_P1;PMS_P2;Temp;Humidity;BMP_temperature;BMP_pressure;BME280_temperature;BME280_humidity;BME280_pressure;Samples;Min_cycle;Max_cycle;Signal;HPM_P1;HPM_P2
2022/07/27 00:00:41;;;;;;;2.9;2.5;;;;;;;;;;;;;
2022/07/27 00:03:07;;;;;;;4.1;2.6;;;;;;;;;;;;;
2022/07/27 00:05:33;;;;;;;3.3;2.5;;;;;;;;;;;;;
2022/07/27 00:07:58;;;;;;;3;2.3;;;;;;;;;;;;;
2022/07/27 00:10:26;;;;;;;2.4;2.2;;;;;;;;;;;;;
2022/07/27 00:12:51;;;;;;;3.7;2.4;;;;;;;;;;;;;
2022/07/27 00:15:16;;;;;;;3.8;2.7;;;;;;;;;;;;;
2022/07/27 00:17:41;;;;;;;2.6;2.4;;;;;;;;;;;;;
2022/07/27 00:20:06;;;;;;;2.7;2.5;;;;;;;;;;;;;
2022/07/27 00:22:32;;;;;;;5.9;2.8;;;;;;;;;;;;;
2022/07/27 00:24:57;;;;;;;3.4;2.4;;;;;;;;;;;;;
2022/07/27 00:27:22;;;;;;;2.8;2.5;;;;;;;;;;;;;
2022/07/27 00:29:48;;;;;;;2.3;2.1;;;;;;;;;;;;;
2022/07/27 00:32:13;;;;;;;3.5;2.3;;;;;;;;;;;;;
2022/07/27 00:34:38;;;;;;;2.4;2.2;;;;;;;;;;;;;
2022/07/27 00:37:04;;;;;;;3.2;2.3;;;;;;;;;;;;;
2022/07/27 00:39:29;;;;;;;2.5;2.3;;;;;;;;;;;;;
2022/07/27 00:41:54;;;;;;;3.4;2.6;;;;;;;;;;;;;
2022/07/27 00:44:19;;;;;;;3.7;2.7;;;;;;;;;;;;;
2022/07/27 00:46:45;;;;;;;3.5;2.2;;;;;;;;;;;;;
2022/07/27 00:49:10;;;;;;;3.5;2.4;;;;;;;;;;;;;
2022/07/27 00:51:36;;;;;;;3.7;2.7;;;;;;;;;;;;;
2022/07/27 00:54:02;;;;;;;2.8;2.4;;;;;;;;;;;;;
2022/07/27 00:56:28;;;;;;;2.5;2.3;;;;;;;;;;;;;
2022/07/27 00:58:53;;;;;;;2.3;2.1;;;;;;;;;;;;;
2022/07/27 01:01:19;;;;;;;2.5;2.3;;;;;;;;;;;;;
2022/07/27 01:03:44;;;;;;;3;2.5;;;;;;;;;;;;;
2022/07/27 01:06:11;;;;;;;3.1;2.2;;;;;;;;;;;;;
2022/07/27 01:08:35;;;;;;;2.8;2.3;;;;;;;;;;;;;
2022/07/27 01:11:02;;;;;;;3.2;2.4;;;;;;;;;;;;;
2022/07/27 01:13:27;;;;;;;2.3;2.1;;;;;;;;;;;;;
2022/07/27 01:15:54;;;;;;;3.3;2.2;;;;;;;;;;;;;
2022/07/27 01:18:19;;;;;;;2.9;2.4;;;;;;;;;;;;;
2022/07/27 01:20:44;;;;;;;2.8;2.5;;;;;;;;;;;;;
2022/07/27 01:23:10;;;;;;;2.7;2.5;;;;;;;;;;;;;
2022/07/27 01:25:38;;;;;;;3.8;2.5;;;;;;;;;;;;;
2022/07/27 01:28:01;;;;;;;2.9;2.3;;;;;;;;;;;;;
2022/07/27 01:30:34;;;;;;;3;2.4;;;;;;;;;;;;;
2022/07/27 01:32:57;;;;;;;2.8;2.4;;;;;;;;;;;;;
2022/07/27 01:35:22;;;;;;;3.7;2.5;;;;;;;;;;;;;
2022/07/27 01:37:47;;;;;;;2.6;2.3;;;;;;;;;;;;;
2022/07/27 01:40:13;;;;;;;2.6;2.4;;;;;;;;;;;;;
2022/07/27 01:42:38;;;;;;;3;2.3;;;;;;;;;;;;;
2022/07/27 01:45:04;;;;;;;2.5;2.3;;;;;;;;;;;;;
2022/07/27 01:47:29;;;;;;;2.8;2.4;;;;;;;;;;;;;
2022/07/27 01:49:55;;;;;;;3.9;2.3;;;;;;;;;;;;;
2022/07/27 01:52:21;;;;;;;3.1;2.8;;;;;;;;;;;;;
2022/07/27 01:54:47;;;;;;;4.4;2.5;;;;;;;;;;;;;
2022/07/27 01:57:13;;;;;;;3.3;2.6;;;;;;;;;;;;;
2022/07/27 01:59:38;;;;;;;3.5;2.6;;;;;;;;;;;;;
2022/07/27 02:02:03;;;;;;;3.6;2.7;;;;;;;;;;;;;
2022/07/27 02:04:29;;;;;;;2.3;2.1;;;;;;;;;;;;;
2022/07/27 02:06:54;;;;;;;4;2.3;;;;;;;;;;;;;
2022/07/27 02:09:24;;;;;;;3.5;2.4;;;;;;;;;;;;;
2022/07/27 02:14:10;;;;;;;2.4;2.2;;;;;;;;;;;;;
2022/07/27 02:16:37;;;;;;;2.7;2.2;;;;;;;;;;;;;
2022/07/27 02:19:02;;;;;;;2.7;2.5;;;;;;;;;;;;;
2022/07/27 02:21:28;;;;;;;2.9;2.4;;;;;;;;;;;;;
2022/07/27 02:23:53;;;;;;;2.5;2.3;;;;;;;;;;;;;
2022/07/27 02:26:18;;;;;;;2.9;2.4;;;;;;;;;;;;;
2022/07/27 02:28:43;;;;;;;5.4;2.3;;;;;;;;;;;;;
2022/07/27 02:31:09;;;;;;;3;2.3;;;;;;;;;;;;;
2022/07/27 02:33:34;;;;;;;3.3;2.4;;;;;;;;;;;;;
2022/07/27 02:36:01;;;;;;;2.9;2.3;;;;;;;;;;;;;
2022/07/27 02:38:26;;;;;;;2.5;2.3;;;;;;;;;;;;;
2022/07/27 02:40:53;;;;;;;2.3;2.1;;;;;;;;;;;;;
2022/07/27 02:43:18;;;;;;;2.4;2.2;;;;;;;;;;;;;
2022/07/27 02:45:45;;;;;;;3;2.4;;;;;;;;;;;;;
2022/07/27 02:48:10;;;;;;;2.5;2.2;;;;;;;;;;;;;
2022/07/27 02:50:36;;;;;;;3.3;2.2;;;;;;;;;;;;;
2022/07/27 02:53:01;;;;;;;2.6;2.4;;;;;;;;;;;;;
2022/07/27 02:55:27;;;;;;;3.7;2.3;;;;;;;;;;;;;
2022/07/27 02:57:52;;;;;;;2.3;2.1;;;;;;;;;;;;;
2022/07/27 03:00:18;;;;;;;3.8;2.3;;;;;;;;;;;;;
2022/07/27 03:02:43;;;;;;;3.3;2.4;;;;;;;;;;;;;
2022/07/27 03:05:12;;;;;;;4.1;2.5;;;;;;;;;;;;;
2022/07/27 03:07:43;;;;;;;4.9;2.5;;;;;;;;;;;;;
2022/07/27 03:10:14;;;;;;;3;2.7;;;;;;;;;;;;;
2022/07/27 03:12:43;;;;;;;3.9;2.4;;;;;;;;;;;;;
2022/07/27 03:15:08;;;;;;;2.6;2.4;;;;;;;;;;;;;
2022/07/27 03:17:38;;;;;;;2.6;2.4;;;;;;;;;;;;;
2022/07/27 03:20:06;;;;;;;2.8;2.3;;;;;;;;;;;;;
2022/07/27 03:22:32;;;;;;;3;2.5;;;;;;;;;;;;;
2022/07/27 03:25:01;;;;;;;3.9;2.5;;;;;;;;;;;;;
2022/07/27 03:27:25;;;;;;;2.5;2.3;;;;;;;;;;;;;
2022/07/27 03:29:50;;;;;;;3.6;2.4;;;;;;;;;;;;;
2022/07/27 03:32:15;;;;;;;4.1;2.5;;;;;;;;;;;;;
2022/07/27 03:34:42;;;;;;;3;2.3;;;;;;;;;;;;;
2022/07/27 03:37:07;;;;;;;2.8;2.3;;;;;;;;;;;;;
2022/07/27 03:39:35;;;;;;;3.8;2.6;;;;;;;;;;;;;
2022/07/27 03:42:00;;;;;;;4.2;2.8;;;;;;;;;;;;;
2022/07/27 03:44:25;;;;;;;3.7;2.7;;;;;;;;;;;;;
2022/07/27 03:46:50;;;;;;;2.3;2.1;;;;;;;;;;;;;
2022/07/27 03:49:17;;;;;;;2.4;2.2;;;;;;;;;;;;;
2022/07/27 03:51:42;;;;;;;2.9;2.4;;;;;;;;;;;;;
2022/07/27 03:54:08;;;;;;;4.2;2.5;;;;;;;;;;;;;
2022/07/27 03:56:33;;;;;;;2.6;2.4;;;;;;;;;;;;;
2022/07/27 03:59:00;;;;;;;2.8;2.1;;;;;;;;;;;;;
2022/07/27 04:02:31;;;;;;;2.6;2.4;;;;;;;16.79;90.70703;936.6948;;;;
2022/07/27 04:04:56;;;;;;;2.8;2.6;;;;;;;16.79;90.66016;936.748;;;;
2022/07/27 04:07:22;;;;;;;2.7;2.2;;;;;;;16.85;90.50977;936.7746;;;;
2022/07/27 04:09:47;;;;;;;3.2;2.5;;;;;;;16.92;90.11719;936.7928;;;;
2022/07/27 04:12:13;;;;;;;4.4;2.6;;;;;;;16.9;90.41406;936.8061;;;;
2022/07/27 04:14:38;;;;;;;2.9;2.3;;;;;;;16.94;90.11133;936.777;;;;
2022/07/27 04:17:05;;;;;;;2.6;2.4;;;;;;;17;89.73926;936.7534;;;;
2022/07/27 04:19:31;;;;;;;3.4;2.4;;;;;;;17.08;89.47754;936.775;;;;
2022/07/27 04:21:56;;;;;;;2.8;2.3;;;;;;;17.14;89.16406;936.7466;;;;
2022/07/27 04:24:24;;;;;;;3.2;2.4;;;;;;;17.2;89.29492;936.8081;;;;
2022/07/27 04:26:49;;;;;;;3.7;2.5;;;;;;;17.26;89.29492;936.7994;;;;
2022/07/27 04:29:17;;;;;;;2.2;2.1;;;;;;;17.32;89.15625;936.8118;;;;
2022/07/27 04:31:48;;;;;;;2.4;2.2;;;;;;;17.41;87.72461;936.8069;;;;
2022/07/27 04:34:13;;;;;;;2.8;2.1;;;;;;;17.34;87.75684;936.7986;;;;
2022/07/27 04:36:45;;;;;;;3.3;2.4;;;;;;;17.28;88.54492;936.8359;;;;
2022/07/27 04:39:18;;;;;;;3;2.4;;;;;;;17.22;88.46387;936.8998;;;;
2022/07/27 04:41:45;;;;;;;2.3;1.9;;;;;;;17.28;88.77637;936.9083;;;;
2022/07/27 04:44:10;;;;;;;4.1;2.3;;;;;;;17.25;88.43457;936.9258;;;;
2022/07/27 04:46:44;;;;;;;2.7;2.1;;;;;;;17.25;88.94629;936.851;;;;
2022/07/27 04:49:17;;;;;;;2.9;2.5;;;;;;;17.3;88.22363;936.8742;;;;
2022/07/27 04:51:52;;;;;;;4;2.3;;;;;;;17.21;88.15918;936.8578;;;;
2022/07/27 04:54:17;;;;;;;3;2;;;;;;;17.29;88.68555;936.8511;;;;
2022/07/27 04:56:45;;;;;;;3.5;2.4;;;;;;;17.34;88.77734;936.8678;;;;
2022/07/27 04:59:10;;;;;;;3.2;2.7;;;;;;;17.43;88.44629;936.9205;;;;
2022/07/27 05:01:39;;;;;;;3;2.2;;;;;;;17.46;88.46484;936.9197;;;;
2022/07/27 05:04:04;;;;;;;2.6;2.4;;;;;;;17.51;88.83594;936.8939;;;;
2022/07/27 05:06:34;;;;;;;2.1;1.9;;;;;;;17.5;87.83594;936.948;;;;
2022/07/27 05:08:59;;;;;;;2.6;2.4;;;;;;;17.56;87.63965;936.9171;;;;
2022/07/27 05:11:28;;;;;;;3;2.7;;;;;;;17.5;87.66211;936.9423;;;;
2022/07/27 05:13:53;;;;;;;4.9;2.9;;;;;;;17.53;87.81836;936.9425;;;;
2022/07/27 05:16:21;;;;;;;4;2.7;;;;;;;17.65;87.76074;936.9558;;;;
2022/07/27 05:18:51;;;;;;;3.5;2.4;;;;;;;17.58;87.21387;937.0003;;;;
2022/07/27 05:21:16;;;;;;;2.8;2.2;;;;;;;17.53;87.11035;936.991;;;;
2022/07/27 05:23:44;;;;;;;2.9;2.4;;;;;;;17.53;87.30762;936.978;;;;
2022/07/27 05:26:09;;;;;;;3;2.2;;;;;;;17.59;87.63379;936.9687;;;;
2022/07/27 05:28:39;;;;;;;2.7;2.3;;;;;;;17.66;87.71777;936.9871;;;;
2022/07/27 05:31:04;;;;;;;2.7;2.2;;;;;;;17.86;87.38574;937.0254;;;;
2022/07/27 05:33:32;;;;;;;3;2.1;;;;;;;18;87.54004;937.0822;;;;
2022/07/27 05:35:57;;;;;;;3.1;2.4;;;;;;;18.15;85.65234;937.1284;;;;
2022/07/27 05:38:26;;;;;;;2.4;2.2;;;;;;;18.26;85.19824;937.1562;;;;
2022/07/27 05:40:51;;;;;;;2.6;2.4;;;;;;;18.38;84.69824;937.1423;;;;
2022/07/27 05:43:20;;;;;;;2.9;2;;;;;;;18.28;84.70215;937.1089;;;;
2022/07/27 05:45:45;;;;;;;3.9;2.3;;;;;;;18.26;84.99902;937.0869;;;;
2022/07/27 05:48:10;;;;;;;2.9;2.5;;;;;;;;;;;;;
2022/07/27 05:50:35;;;;;;;3.4;2.4;;;;;;;;;;;;;
2022/07/27 05:53:02;;;;;;;3.7;2.2;;;;;;;;;;;;;
2022/07/27 05:55:27;;;;;;;2.9;2.2;;;;;;;;;;;;;
2022/07/27 05:57:53;;;;;;;2.5;2;;;;;;;;;;;;;
2022/07/27 06:00:18;;;;;;;4.7;2.2;;;;;;;;;;;;;
2022/07/27 06:02:44;;;;;;;3.7;2.4;;;;;;;;;;;;;
2022/07/27 06:05:09;;;;;;;3;2.1;;;;;;;;;;;;;
2022/07/27 06:10:01;;;;;;;2.1;1.9;;;;;;;;;;;;;
2022/07/27 06:12:26;;;;;;;3.3;2.3;;;;;;;;;;;;;
2022/07/27 06:14:51;;;;;;;3.8;2.3;;;;;;;;;;;;;
2022/07/27 06:17:16;;;;;;;3.5;2;;;;;;;;;;;;;
2022/07/27 06:19:42;;;;;;;2.1;1.9;;;;;;;;;;;;;
2022/07/27 06:22:07;;;;;;;2.2;2;;;;;;;;;;;;;
2022/07/27 06:24:32;;;;;;;2.5;1.9;;;;;;;;;;;;;
2022/07/27 06:26:57;;;;;;;3;1.9;;;;;;;;;;;;;
2022/07/27 06:29:24;;;;;;;2.3;2.1;;;;;;;;;;;;;
2022/07/27 06:31:48;;;;;;;2.3;2.1;;;;;;;;;;;;;
2022/07/27 06:34:17;;;;;;;2.4;1.9;;;;;;;;;;;;;
2022/07/27 06:36:44;;;;;;;2.3;1.9;;;;;;;;;;;;;
2022/07/27 06:39:09;;;;;;;3.7;2.1;;;;;;;;;;;;;
2022/07/27 06:41:34;;;;;;;2.5;2.2;;;;;;;;;;;;;
2022/07/27 06:44:02;;;;;;;2.9;2.1;;;;;;;;;;;;;
2022/07/27 06:46:27;;;;;;;2.9;1.9;;;;;;;;;;;;;
2022/07/27 06:48:52;;;;;;;2.2;2;;;;;;;;;;;;;
2022/07/27 06:51:17;;;;;;;2.6;2.2;;;;;;;;;;;;;
2022/07/27 06:53:43;;;;;;;5.2;2.5;;;;;;;;;;;;;
2022/07/27 06:56:08;;;;;;;3.3;2.3;;;;;;;;;;;;;
2022/07/27 06:58:36;;;;;;;3.5;2.3;;;;;;;;;;;;;
2022/07/27 07:01:01;;;;;;;3.1;2;;;;;;;;;;;;;
2022/07/27 07:03:25;;;;;;;2;1.8;;;;;;;;;;;;;
2022/07/27 07:05:50;;;;;;;3.3;1.9;;;;;;;;;;;;;
2022/07/27 07:08:17;;;;;;;2.4;1.8;;;;;;;;;;;;;
2022/07/27 07:10:42;;;;;;;2.5;2.1;;;;;;;;;;;;;
2022/07/27 07:13:08;;;;;;;3.3;1.9;;;;;;;;;;;;;
2022/07/27 07:15:33;;;;;;;2.9;2.1;;;;;;;;;;;;;
2022/07/27 07:18:01;;;;;;;1.8;1.7;;;;;;;;;;;;;
2022/07/27 07:20:25;;;;;;;2.3;2;;;;;;;;;;;;;
2022/07/27 07:22:51;;;;;;;2;1.8;;;;;;;;;;;;;
2022/07/27 07:25:16;;;;;;;2.1;1.8;;;;;;;;;;;;;
2022/07/27 07:27:43;;;;;;;3.5;2.3;;;;;;;;;;;;;
2022/07/27 07:30:08;;;;;;;2.2;1.8;;;;;;;;;;;;;
2022/07/27 07:32:34;;;;;;;2.2;2;;;;;;;;;;;;;
2022/07/27 07:34:59;;;;;;;2.1;1.9;;;;;;;;;;;;;
2022/07/27 07:37:26;;;;;;;2;1.8;;;;;;;;;;;;;
2022/07/27 07:39:51;;;;;;;2.1;1.9;;;;;;;;;;;;;
2022/07/27 07:42:16;;;;;;;5.1;2.4;;;;;;;;;;;;;
2022/07/27 07:44:42;;;;;;;2.8;1.9;;;;;;;;;;;;;
2022/07/27 07:47:10;;;;;;;2.2;2;;;;;;;;;;;;;
2022/07/27 07:49:34;;;;;;;2.4;2.1;;;;;;;;;;;;;
2022/07/27 07:51:59;;;;;;;2.1;1.9;;;;;;;;;;;;;
2022/07/27 07:54:24;;;;;;;2.4;2;;;;;;;;;;;;;
2022/07/27 07:56:50;;;;;;;2.5;2;;;;;;;;;;;;;
2022/07/27 07:59:16;;;;;;;5;2.6;;;;;;;;;;;;;
2022/07/27 08:01:42;;;;;;;4.6;2.3;;;;;;;;;;;;;
2022/07/27 08:04:07;;;;;;;3.1;2.4;;;;;;;;;;;;;
2022/07/27 08:06:32;;;;;;;3.9;2.2;;;;;;;;;;;;;
2022/07/27 08:08:57;;;;;;;2.3;2.1;;;;;;;;;;;;;
2022/07/27 08:11:24;;;;;;;2.4;2.2;;;;;;;;;;;;;
2022/07/27 08:13:49;;;;;;;4.6;2.1;;;;;;;;;;;;;
2022/07/27 08:16:19;;;;;;;2.3;2;;;;;;;;;;;;;
2022/07/27 08:18:46;;;;;;;3.4;2.4;;;;;;;;;;;;;
2022/07/27 08:21:11;;;;;;;3.9;2.1;;;;;;;;;;;;;
2022/07/27 08:23:38;;;;;;;2.7;2;;;;;;;;;;;;;
2022/07/27 08:26:03;;;;;;;2.2;2;;;;;;;;;;;;;
2022/07/27 08:28:29;;;;;;;3.8;2.2;;;;;;;;;;;;;
2022/07/27 08:30:54;;;;;;;2.4;1.6;;;;;;;;;;;;;
2022/07/27 08:33:20;;;;;;;2.6;2.1;;;;;;;;;;;;;
2022/07/27 08:35:45;;;;;;;2.8;2;;;;;;;;;;;;;
2022/07/27 08:38:11;;;;;;;2.7;2;;;;;;;;;;;;;
2022/07/27 08:40:36;;;;;;;3.3;1.8;;;;;;;;;;;;;
2022/07/27 08:43:03;;;;;;;2.4;2;;;;;;;;;;;;;
2022/07/27 08:45:27;;;;;;;2.6;2;;;;;;;;;;;;;
2022/07/27 08:47:54;;;;;;;3.1;2.1;;;;;;;;;;;;;
2022/07/27 08:50:26;;;;;;;2.7;1.9;;;;;;;;;;;;;
2022/07/27 08:52:44;;;;;;;2.4;2.1;;;;;;;;;;;;;
2022/07/27 08:55:09;;;;;;;2.1;1.9;;;;;;;;;;;;;
2022/07/27 08:57:34;;;;;;;2.1;1.9;;;;;;;;;;;;;
2022/07/27 08:59:59;;;;;;;2.1;1.9;;;;;;;;;;;;;
2022/07/27 09:02:25;;;;;;;2.4;2;;;;;;;;;;;;;
2022/07/27 09:04:50;;;;;;;5.7;2.1;;;;;;;;;;;;;
2022/07/27 09:07:16;;;;;;;2.2;2;;;;;;;;;;;;;
2022/07/27 09:09:41;;;;;;;2;1.8;;;;;;;;;;;;;
2022/07/27 09:12:08;;;;;;;2.5;2;;;;;;;;;;;;;
2022/07/27 09:14:33;;;;;;;1.8;1.6;;;;;;;;;;;;;
2022/07/27 09:17:00;;;;;;;2.4;1.7;;;;;;;;;;;;;
2022/07/27 09:19:25;;;;;;;2.6;2;;;;;;;;;;;;;
2022/07/27 09:21:50;;;;;;;2.2;1.4;;;;;;;;;;;;;
2022/07/27 09:24:15;;;;;;;2.2;2;;;;;;;;;;;;;
2022/07/27 09:26:40;;;;;;;2.2;1.6;;;;;;;;;;;;;
2022/07/27 09:29:14;;;;;;;4.1;1.7;;;;;;;;;;;;;
2022/07/27 09:31:31;;;;;;;1.7;1.6;;;;;;;;;;;;;
2022/07/27 09:33:56;;;;;;;2.1;1.5;;;;;;;;;;;;;
2022/07/27 09:36:22;;;;;;;1.9;1.7;;;;;;;;;;;;;
2022/07/27 09:38:47;;;;;;;2.1;1.7;;;;;;;;;;;;;
2022/07/27 09:41:12;;;;;;;2.8;1.9;;;;;;;;;;;;;
2022/07/27 09:43:37;;;;;;;3;1.8;;;;;;;;;;;;;
2022/07/27 09:46:02;;;;;;;2.4;1.8;;;;;;;;;;;;;
2022/07/27 09:48:28;;;;;;;1.8;1.7;;;;;;;;;;;;;
2022/07/27 09:50:53;;;;;;;2.6;1.9;;;;;;;;;;;;;
2022/07/27 09:53:19;;;;;;;3.9;1.8;;;;;;;;;;;;;
2022/07/27 09:55:44;;;;;;;3.5;1.5;;;;;;;;;;;;;
2022/07/27 09:58:10;;;;;;;2.2;1.7;;;;;;;;;;;;;
2022/07/27 10:00:36;;;;;;;2.1;1.6;;;;;;;;;;;;;
2022/07/27 10:03:01;;;;;;;2.2;1.6;;;;;;;;;;;;;
2022/07/27 10:05:26;;;;;;;2.5;1.7;;;;;;;;;;;;;
2022/07/27 10:07:52;;;;;;;1.9;1.7;;;;;;;;;;;;;
2022/07/27 10:10:18;;;;;;;1.9;1.7;;;;;;;;;;;;;
2022/07/27 10:12:44;;;;;;;1.7;1.5;;;;;;;;;;;;;
2022/07/27 10:20:07;;;;;;;2.8;1.9;;;;;;;;;;;;;
2022/07/27 10:22:32;;;;;;;3;1.6;;;;;;;;;;;;;
2022/07/27 10:24:59;;;;;;;2.2;1.8;;;;;;;;;;;;;
2022/07/27 10:27:24;;;;;;;1.5;1.4;;;;;;;;;;;;;
2022/07/27 10:29:51;;;;;;;1.9;1.4;;;;;;;;;;;;;
2022/07/27 10:32:16;;;;;;;3.6;1.6;;;;;;;;;;;;;
2022/07/27 10:34:41;;;;;;;2.2;1.7;;;;;;;;;;;;;
2022/07/27 10:37:08;;;;;;;1.7;1.4;;;;;;;;;;;;;
2022/07/27 10:39:33;;;;;;;2.8;1.7;;;;;;;;;;;;;
2022/07/27 10:42:00;;;;;;;2.1;1.4;;;;;;;;;;;;;
2022/07/27 10:44:25;;;;;;;2.3;1.5;;;;;;;;;;;;;
2022/07/27 10:46:52;;;;;;;1.8;1.4;;;;;;;;;;;;;
2022/07/27 10:49:17;;;;;;;2;1.3;;;;;;;;;;;;;
2022/07/27 10:51:43;;;;;;;1.5;1.4;;;;;;;;;;;;;
2022/07/27 10:54:08;;;;;;;1.9;1.5;;;;;;;;;;;;;
2022/07/27 10:56:36;;;;;;;3;1.5;;;;;;;;;;;;;
2022/07/27 10:59:01;;;;;;;1.7;1.5;;;;;;;;;;;;;
2022/07/27 11:01:26;;;;;;;3.3;1.7;;;;;;;;;;;;;
2022/07/27 11:03:54;;;;;;;1.6;1.5;;;;;;;;;;;;;
2022/07/27 11:06:16;;;;;;;3.1;1.6;;;;;;;;;;;;;
2022/07/27 11:08:41;;;;;;;2.9;1.5;;;;;;;;;;;;;
2022/07/27 11:11:07;;;;;;;2.6;1.5;;;;;;;;;;;;;
2022/07/27 11:13:32;;;;;;;1.9;1.6;;;;;;;;;;;;;
2022/07/27 11:15:56;;;;;;;2.1;1.7;;;;;;;;;;;;;
2022/07/27 11:18:25;;;;;;;2.3;1.4;;;;;;;;;;;;;
2022/07/27 11:20:50;;;;;;;2.1;1.2;;;;;;;;;;;;;
2022/07/27 11:23:16;;;;;;;3.1;1.6;;;;;;;;;;;;;
2022/07/27 11:25:45;;;;;;;2.1;1.9;;;;;;;;;;;;;
2022/07/27 11:28:57;;;;;;;2.3;1.8;;;;;;;;;;;;;
2022/07/27 11:30:39;;;;;;;1.9;1.4;;;;;;;;;;;;;
2022/07/27 11:33:04;;;;;;;1.5;1.4;;;;;;;;;;;;;
2022/07/27 11:35:29;;;;;;;1.7;1.4;;;;;;;;;;;;;
2022/07/27 11:37:54;;;;;;;3.7;1.7;;;;;;;;;;;;;
2022/07/27 11:40:19;;;;;;;2.6;1.9;;;;;;;;;;;;;
2022/07/27 11:42:46;;;;;;;1.9;1.7;;;;;;;;;;;;;
2022/07/27 11:45:13;;;;;;;2.8;1.4;;;;;;;;;;;;;
2022/07/27 11:47:38;;;;;;;1.9;1.7;;;;;;;;;;;;;
2022/07/27 11:50:03;;;;;;;4.1;1.4;;;;;;;;;;;;;
2022/07/27 11:52:30;;;;;;;3.7;1.4;;;;;;;;;;;;;
2022/07/27 11:54:55;;;;;;;2.1;1.6;;;;;;;;;;;;;
2022/07/27 11:57:21;;;;;;;2.4;1.5;;;;;;;;;;;;;
2022/07/27 11:59:46;;;;;;;1.7;1.6;;;;;;;;;;;;;
2022/07/27 12:02:12;;;;;;;2.6;1.5;;;;;;;;;;;;;
2022/07/27 12:04:36;;;;;;;2.3;1.8;;;;;;;;;;;;;
2022/07/27 12:07:01;;;;;;;2;1.7;;;;;;;;;;;;;
2022/07/27 12:09:26;;;;;;;2.6;1.6;;;;;;;;;;;;;
2022/07/27 12:11:52;;;;;;;1.7;1.6;;;;;;;;;;;;;
2022/07/27 12:14:17;;;;;;;2.6;1.7;;;;;;;;;;;;;
2022/07/27 12:16:42;;;;;;;2.9;1.9;;;;;;;;;;;;;
2022/07/27 12:19:07;;;;;;;1.8;1.5;;;;;;;;;;;;;
2022/07/27 12:21:32;;;;;;;3.3;1.7;;;;;;;;;;;;;
2022/07/27 12:23:58;;;;;;;1.8;1.7;;;;;;;;;;;;;
2022/07/27 12:26:24;;;;;;;2.8;1.8;;;;;;;;;;;;;
2022/07/27 12:28:49;;;;;;;2.1;1.9;;;;;;;;;;;;;
2022/07/27 12:31:16;;;;;;;1.7;1.6;;;;;;;;;;;;;
2022/07/27 12:33:41;;;;;;;2.4;2.1;;;;;;;;;;;;;
2022/07/27 12:36:07;;;;;;;4.8;2;;;;;;;;;;;;;
2022/07/27 12:38:32;;;;;;;1.8;1.4;;;;;;;;;;;;;
2022/07/27 12:40:57;;;;;;;2.5;1.5;;;;;;;;;;;;;
2022/07/27 12:43:23;;;;;;;3.3;1.7;;;;;;;;;;;;;
2022/07/27 12:45:48;;;;;;;2.9;1.6;;;;;;;;;;;;;
2022/07/27 12:48:14;;;;;;;1.7;1.4;;;;;;;;;;;;;
2022/07/27 12:50:40;;;;;;;1.5;1.4;;;;;;;;;;;;;
2022/07/27 12:53:05;;;;;;;2.1;1.9;;;;;;;;;;;;;
2022/07/27 12:55:31;;;;;;;1.5;1.4;;;;;;;;;;;;;
2022/07/27 12:57:56;;;;;;;2.1;1.4;;;;;;;;;;;;;
2022/07/27 13:00:24;;;;;;;2.2;1.7;;;;;;;;;;;;;
2022/07/27 13:02:47;;;;;;;2.1;1.5;;;;;;;;;;;;;
2022/07/27 13:05:13;;;;;;;5.1;1.8;;;;;;;;;;;;;
2022/07/27 13:07:38;;;;;;;2.2;1.5;;;;;;;;;;;;;
2022/07/27 13:10:04;;;;;;;2.2;1.6;;;;;;;;;;;;;
2022/07/27 13:12:29;;;;;;;2.3;1.9;;;;;;;;;;;;;
2022/07/27 13:14:56;;;;;;;3.5;1.8;;;;;;;;;;;;;
2022/07/27 13:17:21;;;;;;;2.4;1.6;;;;;;;;;;;;;
2022/07/27 13:19:48;;;;;;;3.4;2;;;;;;;;;;;;;
2022/07/27 13:22:13;;;;;;;1.6;1.5;;;;;;;;;;;;;
2022/07/27 13:24:39;;;;;;;3.2;1.7;;;;;;;;;;;;;
2022/07/27 13:27:04;;;;;;;2.4;1.8;;;;;;;;;;;;;
2022/07/27 13:29:29;;;;;;;3.4;1.8;;;;;;;;;;;;;
2022/07/27 13:31:54;;;;;;;2.8;1.8;;;;;;;;;;;;;
2022/07/27 13:34:21;;;;;;;3.2;1.6;;;;;;;;;;;;;
2022/07/27 13:36:46;;;;;;;4.2;1.9;;;;;;;;;;;;;
2022/07/27 13:39:14;;;;;;;2.8;1.7;;;;;;;;;;;;;
2022/07/27 13:41:40;;;;;;;1.8;1.6;;;;;;;;;;;;;
2022/07/27 13:44:05;;;;;;;2.6;1.6;;;;;;;;;;;;;
2022/07/27 13:46:30;;;;;;;2.3;1.4;;;;;;;;;;;;;
2022/07/27 13:48:57;;;;;;;1.8;1.7;;;;;;;;;;;;;
2022/07/27 13:51:22;;;;;;;3.4;1.8;;;;;;;;;;;;;
2022/07/27 13:53:47;;;;;;;2.8;1.7;;;;;;;;;;;;;
2022/07/27 13:56:12;;;;;;;2.3;1.7;;;;;;;;;;;;;
2022/07/27 13:58:39;;;;;;;2.8;1.6;;;;;;;;;;;;;
2022/07/27 14:01:03;;;;;;;3;1.8;;;;;;;;;;;;;
2022/07/27 14:03:29;;;;;;;3.3;1.8;;;;;;;;;;;;;
2022/07/27 14:05:54;;;;;;;2.7;1.8;;;;;;;;;;;;;
2022/07/27 14:08:21;;;;;;;2.1;1.6;;;;;;;;;;;;;
2022/07/27 14:10:46;;;;;;;2.9;1.8;;;;;;;;;;;;;
2022/07/27 14:13:12;;;;;;;2.4;1.7;;;;;;;;;;;;;
2022/07/27 14:15:37;;;;;;;2.9;2;;;;;;;;;;;;;
2022/07/27 14:18:05;;;;;;;2;1.6;;;;;;;;;;;;;
2022/07/27 14:20:30;;;;;;;2.2;1.6;;;;;;;;;;;;;
2022/07/27 14:22:55;;;;;;;2.5;1.7;;;;;;;;;;;;;
2022/07/27 14:25:20;;;;;;;3.2;2;;;;;;;;;;;;;
2022/07/27 14:27:45;;;;;;;2.4;1.8;;;;;;;;;;;;;
2022/07/27 14:30:10;;;;;;;2.5;2;;;;;;;;;;;;;
2022/07/27 14:32:37;;;;;;;1.7;1.6;;;;;;;;;;;;;
2022/07/27 14:35:02;;;;;;;7.9;2.5;;;;;;;;;;;;;
2022/07/27 14:37:28;;;;;;;4.1;2.5;;;;;;;;;;;;;
2022/07/27 14:39:53;;;;;;;3.1;2;;;;;;;;;;;;;
2022/07/27 14:42:22;;;;;;;2.8;1.9;;;;;;;;;;;;;
2022/07/27 14:44:48;;;;;;;3.7;2.1;;;;;;;;;;;;;
2022/07/27 14:47:11;;;;;;;3.5;2.1;;;;;;;;;;;;;
2022/07/27 14:49:36;;;;;;;2.5;1.8;;;;;;;;;;;;;
2022/07/27 14:52:01;;;;;;;2.9;1.8;;;;;;;;;;;;;
2022/07/27 14:54:27;;;;;;;2.6;2.4;;;;;;;;;;;;;
2022/07/27 14:56:52;;;;;;;2.1;1.9;;;;;;;;;;;;;
2022/07/27 14:59:19;;;;;;;2.1;1.9;;;;;;;;;;;;;
2022/07/27 15:01:44;;;;;;;2.5;2.1;;;;;;;;;;;;;
2022/07/27 15:04:11;;;;;;;2.5;2.1;;;;;;;;;;;;;
2022/07/27 15:06:47;;;;;;;2;1.8;;;;;;;;;;;;;
2022/07/27 15:09:13;;;;;;;3.1;2.2;;;;;;;;;;;;;
2022/07/27 15:11:51;;;;;;;2.1;1.7;;;;;;;;;;;;;
2022/07/27 15:14:16;;;;;;;2.2;1.8;;;;;;;;;;;;;
2022/07/27 15:16:41;;;;;;;2.4;2;;;;;;;;;;;;;
2022/07/27 15:19:12;;;;;;;2.3;1.8;;;;;;;;;;;;;
2022/07/27 15:21:46;;;;;;;;;;;;;;;;;;;;;
2022/07/27 15:24:20;;;;;;;1.8;1.7;;;;;;;;;;;;;
2022/07/27 15:26:35;;;;;;;2.6;1.9;;;;;;;;;;;;;
2022/07/27 15:33:21;;;;;;;2.2;1.5;;;;;;;;;;;;;
2022/07/27 15:35:37;;;;;;;2.4;1.6;;;;;;;;;;;;;
2022/07/27 15:38:32;;;;;;;3.6;2;;;;;;;;;;;;;
2022/07/27 15:40:51;;;;;;;2;1.8;;;;;;;;;;;;;
2022/07/27 15:43:09;;;;;;;4.4;2;;;;;;;;;;;;;
2022/07/27 15:45:39;;;;;;;1.6;1.5;;;;;;;;;;;;;
2022/07/27 15:47:59;;;;;;;2.1;1.7;;;;;;;;;;;;;
2022/07/27 15:50:47;;;;;;;3.4;2;;;;;;;;;;;;;
2022/07/27 15:53:02;;;;;;;2.1;1.6;;;;;;;;;;;;;
2022/07/27 15:55:18;;;;;;;2.9;2;;;;;;;;;;;;;
2022/07/27 15:58:07;;;;;;;1.7;1.6;;;;;;;;;;;;;
2022/07/27 16:00:21;;;;;;;1.9;1.8;;;;;;;;;;;;;
2022/07/27 16:02:44;;;;;;;2.3;2;;;;;;;;;;;;;
2022/07/27 16:05:12;;;;;;;2.2;1.9;;;;;;;;;;;;;
2022/07/27 16:07:37;;;;;;;3.4;2.2;;;;;;;;;;;;;
2022/07/27 16:10:02;;;;;;;3.1;1.9;;;;;;;;;;;;;
2022/07/27 16:12:27;;;;;;;2.6;1.7;;;;;;;;;;;;;
2022/07/27 16:14:53;;;;;;;1.9;1.8;;;;;;;;;;;;;
2022/07/27 16:17:19;;;;;;;4.7;1.9;;;;;;;;;;;;;
2022/07/27 16:19:44;;;;;;;1.7;1.6;;;;;;;;;;;;;
2022/07/27 16:22:09;;;;;;;2.6;2.1;;;;;;;;;;;;;
2022/07/27 16:24:34;;;;;;;2.8;1.9;;;;;;;;;;;;;
2022/07/27 16:27:14;;;;;;;2.6;1.8;;;;;;;;;;;;;
2022/07/27 16:29:39;;;;;;;2;1.8;;;;;;;;;;;;;
2022/07/27 16:32:04;;;;;;;3;1.8;;;;;;;;;;;;;
2022/07/27 16:34:36;;;;;;;5.1;1.8;;;;;;;;;;;;;
2022/07/27 16:37:01;;;;;;;3.9;2;;;;;;;;;;;;;
2022/07/27 16:39:27;;;;;;;2.5;2;;;;;;;;;;;;;
2022/07/27 16:41:53;;;;;;;1.9;1.8;;;;;;;;;;;;;
2022/07/27 16:44:17;;;;;;;2.5;1.9;;;;;;;;;;;;;
2022/07/27 16:46:46;;;;;;;2.3;1.7;;;;;;;;;;;;;
2022/07/27 16:49:11;;;;;;;2.3;1.8;;;;;;;;;;;;;
2022/07/27 16:51:36;;;;;;;2.7;2;;;;;;;;;;;;;
2022/07/27 16:54:14;;;;;;;3.1;2;;;;;;;;;;;;;
2022/07/27 16:56:27;;;;;;;2.9;2.2;;;;;;;;;;;;;
2022/07/27 16:59:17;;;;;;;2.9;2;;;;;;;;;;;;;
2022/07/27 17:01:29;;;;;;;2.5;2;;;;;;;;;;;;;
2022/07/27 17:04:16;;;;;;;3;1.9;;;;;;;;;;;;;
2022/07/27 17:06:42;;;;;;;4.5;2;;;;;;;;;;;;;
2022/07/27 17:09:07;;;;;;;4.6;2;;;;;;;;;;;;;
2022/07/27 17:11:34;;;;;;;2.3;1.9;;;;;;;;;;;;;
2022/07/27 17:13:59;;;;;;;2.8;1.9;;;;;;;;;;;;;
2022/07/27 17:16:27;;;;;;;2.1;1.8;;;;;;;;;;;;;
2022/07/27 17:18:49;;;;;;;3.6;1.8;;;;;;;;;;;;;
2022/07/27 17:21:15;;;;;;;2.2;1.8;;;;;;;;;;;;;
2022/07/27 17:23:40;;;;;;;4.2;1.9;;;;;;;;;;;;;
2022/07/27 17:26:06;;;;;;;2.8;2.1;;;;;;;;;;;;;
2022/07/27 17:28:32;;;;;;;2.2;2;;;;;;;;;;;;;
2022/07/27 17:30:57;;;;;;;2.2;2;;;;;;;;;;;;;
2022/07/27 17:33:22;;;;;;;5.5;2.1;;;;;;;;;;;;;
2022/07/27 17:35:47;;;;;;;3.2;2;;;;;;;;;;;;;
2022/07/27 17:38:14;;;;;;;3.3;2.2;;;;;;;;;;;;;
2022/07/27 17:40:41;;;;;;;3.4;2.7;;;;;;;;;;;;;
2022/07/27 17:43:05;;;;;;;5.9;2.4;;;;;;;;;;;;;
2022/07/27 17:45:32;;;;;;;3.9;2.3;;;;;;;;;;;;;
2022/07/27 17:47:57;;;;;;;4.6;2.2;;;;;;;;;;;;;
2022/07/27 17:50:26;;;;;;;3.3;2.1;;;;;;;;;;;;;
2022/07/27 17:52:49;;;;;;;3.3;2.4;;;;;;;;;;;;;
2022/07/27 17:55:16;;;;;;;3;2.1;;;;;;;;;;;;;
2022/07/27 17:57:41;;;;;;;2.7;2.1;;;;;;;;;;;;;
2022/07/27 18:00:13;;;;;;;2.2;2.1;;;;;;;;;;;;;
2022/07/27 18:02:39;;;;;;;3.1;2.3;;;;;;;;;;;;;
2022/07/27 18:05:04;;;;;;;2.6;2.2;;;;;;;;;;;;;
2022/07/27 18:07:31;;;;;;;5.4;2.1;;;;;;;;;;;;;
2022/07/27 18:09:57;;;;;;;3.7;2.1;;;;;;;;;;;;;
2022/07/27 18:12:23;;;;;;;2.9;2;;;;;;;;;;;;;
2022/07/27 18:15:47;;;;;;;2.5;2.3;;;;;;;;;;;;;
2022/07/27 18:17:13;;;;;;;3.2;2.2;;;;;;;;;;;;;
2022/07/27 18:19:38;;;;;;;2.2;2;;;;;;;;;;;;;
2022/07/27 18:22:05;;;;;;;4;2.5;;;;;;;;;;;;;
2022/07/27 18:24:34;;;;;;;3.6;2.7;;;;;;;;;;;;;
2022/07/27 18:26:58;;;;;;;3.6;2.8;;;;;;;;;;;;;
2022/07/27 18:29:20;;;;;;;4;2.7;;;;;;;;;;;;;
2022/07/27 18:31:46;;;;;;;2.5;2.3;;;;;;;;;;;;;
2022/07/27 18:34:10;;;;;;;4.8;3;;;;;;;;;;;;;
2022/07/27 18:36:37;;;;;;;4;2.6;;;;;;;;;;;;;
2022/07/27 18:39:02;;;;;;;3.2;2.2;;;;;;;;;;;;;
2022/07/27 18:41:28;;;;;;;6.6;2.8;;;;;;;;;;;;;
2022/07/27 18:43:54;;;;;;;2.5;2.3;;;;;;;;;;;;;
2022/07/27 18:46:19;;;;;;;3.9;2.8;;;;;;;;;;;;;
2022/07/27 18:48:44;;;;;;;5.6;2.8;;;;;;;;;;;;;
2022/07/27 18:51:10;;;;;;;3.4;2.4;;;;;;;;;;;;;
2022/07/27 18:53:36;;;;;;;5.3;2.5;;;;;;;;;;;;;
2022/07/27 18:56:01;;;;;;;4.3;2.6;;;;;;;;;;;;;
2022/07/27 18:58:26;;;;;;;4.6;2.7;;;;;;;;;;;;;
2022/07/27 19:00:55;;;;;;;2.8;2.6;;;;;;;;;;;;;
2022/07/27 19:03:20;;;;;;;3;2.7;;;;;;;;;;;;;
2022/07/27 19:05:47;;;;;;;3;2.6;;;;;;;;;;;;;
2022/07/27 19:08:11;;;;;;;4.1;2.9;;;;;;;;;;;;;
2022/07/27 19:10:38;;;;;;;3.5;3;;;;;;;;;;;;;
2022/07/27 19:13:02;;;;;;;4.2;2.7;;;;;;;;;;;;;
2022/07/27 19:15:31;;;;;;;3.8;2.7;;;;;;;;;;;;;
2022/07/27 19:17:55;;;;;;;3.8;3.1;;;;;;;;;;;;;
2022/07/27 19:20:20;;;;;;;3.4;2.9;;;;;;;;;;;;;
2022/07/27 19:22:48;;;;;;;3.3;2.8;;;;;;;;;;;;;
2022/07/27 19:25:10;;;;;;;4.7;2.9;;;;;;;;;;;;;
2022/07/27 19:27:35;;;;;;;4.2;2.7;;;;;;;;;;;;;
2022/07/27 19:30:00;;;;;;;4.4;2.9;;;;;;;;;;;;;
2022/07/27 19:32:27;;;;;;;3.7;2.4;;;;;;;;;;;;;
2022/07/27 19:34:52;;;;;;;4.8;3.5;;;;;;;;;;;;;
2022/07/27 19:37:17;;;;;;;3.2;2.7;;;;;;;;;;;;;
2022/07/27 19:39:42;;;;;;;3.2;2.9;;;;;;;;;;;;;
2022/07/27 19:42:09;;;;;;;4.2;2.8;;;;;;;;;;;;;
2022/07/27 19:44:34;;;;;;;3.1;2.8;;;;;;;;;;;;;
2022/07/27 19:47:00;;;;;;;2.9;2.6;;;;;;;;;;;;;
2022/07/27 19:49:25;;;;;;;5.6;2.6;;;;;;;;;;;;;
2022/07/27 19:51:51;;;;;;;3.5;3;;;;;;;;;;;;;
2022/07/27 19:54:16;;;;;;;3.6;2.9;;;;;;;;;;;;;
2022/07/27 19:56:42;;;;;;;4.7;2.5;;;;;;;;;;;;;
2022/07/27 19:59:07;;;;;;;3.2;2.9;;;;;;;;;;;;;
2022/07/27 20:01:33;;;;;;;4.6;3.3;;;;;;;;;;;;;
2022/07/27 20:03:58;;;;;;;3.2;2.8;;;;;;;;;;;;;
2022/07/27 20:06:24;;;;;;;4.3;3.5;;;;;;;;;;;;;
2022/07/27 20:08:49;;;;;;;6.5;3.6;;;;;;;;;;;;;